Time;durP1;ratioP1;P1;durP2;ratioP2;P2;SDS_P1;SDS_P2;PMS_P1;PMS_P2;Temp;Humidity;BMP_temperature;BMP_pressure;BME280_temperature;BME280_humidity;BME280_pressure;Samples;Min_cycle;Max_cycle;Signal;HPM_P1;HPM_P2
2022/10/12 00:01:14;;;;;;;9.55;4.25;;;;;;;-148.88;100.00;77329.38;4976083;28;20050;-76
2022/10/12 00:03:40;;;;;;;10.75;4.82;;;;;;;-148.88;100.00;77333.44;4975930;28;20034;-76
2022/10/12 00:06:08;;;;;;;13.38;7.20;;;;;;;-148.88;100.00;77347.66;4975909;28;20417;-76
2022/10/12 00:08:35;;;;;;;10.68;5.25;;;;;;;-148.88;100.00;77343.59;4975536;28;20493;-76
2022/10/12 00:11:01;;;;;;;14.27;4.45;;;;;;;-148.88;100.00;77343.59;4974070;28;20049;-76
2022/10/12 00:13:27;;;;;;;17.33;6.07;;;;;;;-148.88;100.00;77341.56;4975881;28;20541;-76
2022/10/12 00:15:52;;;;;;;11.75;4.65;;;;;;;-148.88;100.00;77349.69;4975706;28;20027;-76
2022/10/12 00:18:17;;;;;;;14.73;4.57;;;;;;;-148.88;100.00;77345.63;4974434;28;20031;-76
2022/10/12 00:20:43;;;;;;;14.73;6.93;;;;;;;-148.88;100.00;77353.75;4975581;28;20034;-76
2022/10/12 00:23:08;;;;;;;14.38;4.55;;;;;;;-148.88;100.00;77355.78;4974156;28;20023;-76
2022/10/12 00:25:39;;;;;;;12.25;4.90;;;;;;;-148.88;98.90;77384.25;4974743;28;20533;-76
2022/10/12 00:28:05;;;;;;;11.52;4.35;;;;;;;-148.88;99.71;77384.25;4975541;28;20039;-76
2022/10/12 00:30:30;;;;;;;11.55;4.88;;;;;;;-148.88;98.94;77435.03;4973935;28;20034;-77
2022/10/12 00:32:56;;;;;;;12.95;5.40;;;;;;;-148.88;100.00;77447.22;4974167;28;20393;-76
2022/10/12 00:35:22;;;;;;;12.70;5.30;;;;;;;-148.88;100.00;77433.00;4975285;28;20486;-76
2022/10/12 00:37:47;;;;;;;9.27;4.20;;;;;;;-148.88;100.00;77437.06;4975555;28;20089;-76
2022/10/12 00:40:13;;;;;;;9.27;4.70;;;;;;;-148.88;100.00;77435.03;4975400;28;20019;-76
2022/10/12 00:42:38;;;;;;;16.83;6.10;;;;;;;-148.88;100.00;77435.03;4975635;28;20472;-76
2022/10/12 00:45:04;;;;;;;13.05;5.88;;;;;;;-148.88;100.00;77433.00;4975422;28;20027;-76
2022/10/12 00:47:33;;;;;;;11.85;5.25;;;;;;;-148.88;100.00;77426.91;4973567;28;20027;-76
2022/10/12 00:50:19;;;;;;;15.55;5.93;;;;;;;-148.88;100.00;77426.91;4975004;28;20089;-76
2022/10/12 00:53:12;;;;;;;13.43;5.60;;;;;;;-148.88;100.00;77426.91;4974799;28;20105;-76
2022/10/12 00:55:42;;;;;;;16.70;5.95;;;;;;;-148.88;100.00;77430.97;4974639;28;20508;-76
2022/10/12 00:58:09;;;;;;;14.88;5.43;;;;;;;-148.88;100.00;77433.00;4975072;28;20585;-76
2022/10/12 01:00:36;;;;;;;12.55;6.00;;;;;;;-148.88;100.00;77435.03;4974942;28;20072;-76
2022/10/12 01:03:04;;;;;;;14.18;4.78;;;;;;;-148.88;100.00;77426.91;4975111;28;20034;-76
2022/10/12 01:05:29;;;;;;;11.77;4.75;;;;;;;-148.88;100.00;77426.91;4975192;28;20023;-76
2022/10/12 01:07:55;;;;;;;9.48;4.85;;;;;;;-148.88;100.00;77424.88;4974888;28;20035;-77
2022/10/12 01:10:20;;;;;;;14.48;5.72;;;;;;;-148.88;100.00;77426.91;4974656;28;20098;-76
2022/10/12 01:12:48;;;;;;;16.13;4.85;;;;;;;-148.88;100.00;77422.84;4974335;28;20023;-76
2022/10/12 01:15:13;;;;;;;15.02;5.22;;;;;;;-148.88;100.00;77428.94;4973410;28;20022;-76
2022/10/12 01:18:00;;;;;;;11.05;4.25;;;;;;;-148.88;100.00;77430.97;4974634;28;20048;-76
2022/10/12 01:21:03;;;;;;;15.52;5.32;;;;;;;-148.88;100.00;77430.97;4973180;28;20497;-76
2022/10/12 01:23:57;;;;;;;12.18;4.55;;;;;;;-148.88;100.00;77426.91;4974457;28;20035;-76
2022/10/12 01:26:31;;;;;;;11.88;5.13;;;;;;;-148.88;100.00;77435.03;4972967;28;20031;-76
2022/10/12 01:29:05;;;;;;;10.43;4.68;;;;;;;-148.88;100.00;77426.91;4974391;28;20030;-76
2022/10/12 01:31:48;;;;;;;12.35;5.25;;;;;;;-148.88;100.00;77428.94;4973302;28;20133;-76
2022/10/12 01:34:34;;;;;;;9.52;5.25;;;;;;;-148.88;100.00;77430.97;4973070;28;20027;-76
2022/10/12 01:43:40;;;;;;;9.05;4.20;;;;;;;-148.88;100.00;77430.97;4979465;28;20137;-85
2022/10/12 01:46:29;;;;;;;13.50;4.80;;;;;;;-148.88;100.00;77435.03;4979574;28;20035;-84
2022/10/12 01:49:02;;;;;;;12.48;5.50;;;;;;;-148.88;100.00;77447.22;4976537;28;20077;-84
2022/10/12 01:51:34;;;;;;;11.90;4.32;;;;;;;-148.88;100.00;77439.09;4978858;28;20031;-85
2022/10/12 01:54:43;;;;;;;9.43;4.95;;;;;;;-148.88;100.00;77439.09;4978807;28;20385;-84
2022/10/12 01:57:20;;;;;;;15.18;5.20;;;;;;;-148.88;100.00;77443.16;4980345;28;20393;-84
2022/10/12 01:59:56;;;;;;;8.05;5.00;;;;;;;-148.88;100.00;77435.03;4980841;28;20027;-84
2022/10/12 02:02:43;;;;;;;13.45;4.90;;;;;;;-148.88;100.00;77435.03;4978777;28;20457;-84
2022/10/12 02:05:19;;;;;;;12.70;5.03;;;;;;;-148.88;100.00;77435.03;4980086;28;20030;-85
2022/10/12 02:08:05;;;;;;;12.98;4.80;;;;;;;-148.88;100.00;77433.00;4979956;28;20034;-83
2022/10/12 02:11:01;;;;;;;10.95;4.68;;;;;;;-148.88;100.00;77437.06;4976679;28;20031;-85
2022/10/12 02:13:34;;;;;;;12.25;4.97;;;;;;;-148.88;100.00;77445.19;4978445;28;20089;-84
2022/10/12 02:16:03;;;;;;;11.27;5.30;;;;;;;-148.88;100.00;77439.09;4978042;28;20030;-83
2022/10/12 02:18:34;;;;;;;10.25;5.03;;;;;;;-148.88;100.00;77435.03;4977157;28;20276;-86
2022/10/12 02:21:08;;;;;;;14.85;4.68;;;;;;;-148.88;100.00;77435.03;4976572;28;20039;-84
2022/10/12 02:23:46;;;;;;;17.45;5.30;;;;;;;-148.88;100.00;77439.09;4980257;28;20030;-84
2022/10/12 02:26:19;;;;;;;18.90;5.88;;;;;;;-148.88;100.00;77451.28;4981901;28;20026;-83
2022/10/12 02:28:48;;;;;;;13.48;5.50;;;;;;;-148.88;100.00;77449.25;4981771;28;20035;-83
2022/10/12 02:31:33;;;;;;;13.10;5.65;;;;;;;-148.88;100.00;77443.16;4981472;28;20055;-85
2022/10/12 02:34:44;;;;;;;15.63;6.60;;;;;;;-148.88;100.00;77451.28;4982299;28;20488;-84
2022/10/12 02:37:24;;;;;;;11.85;5.65;;;;;;;-148.88;100.00;77449.25;4980488;28;20028;-83
2022/10/12 02:39:55;;;;;;;10.90;5.22;;;;;;;-148.88;100.00;77447.22;4980384;28;20034;-85
2022/10/12 02:42:37;;;;;;;11.20;5.63;;;;;;;-148.88;100.00;77445.19;4972865;28;20494;-86
2022/10/12 02:45:18;;;;;;;11.43;5.32;;;;;;;-148.88;100.00;77449.25;4978649;28;20122;-85
2022/10/12 02:47:48;;;;;;;8.20;4.28;;;;;;;-148.88;100.00;77451.28;4979272;28;20030;-85
2022/10/12 02:50:17;;;;;;;9.70;5.13;;;;;;;-148.88;100.00;77447.22;4982525;28;20031;-85
2022/10/12 02:52:49;;;;;;;10.40;4.70;;;;;;;-148.88;100.00;77453.31;4991369;28;20528;-85
2022/10/12 02:55:18;;;;;;;9.15;4.47;;;;;;;-148.88;100.00;77465.53;4987976;28;20469;-86
2022/10/12 02:57:43;;;;;;;8.05;4.47;;;;;;;-148.88;100.00;77463.50;4983764;28;20034;-86
2022/10/12 03:00:24;;;;;;;9.27;4.55;;;;;;;-148.88;100.00;77469.59;4983990;28;20058;-86
2022/10/12 03:02:57;;;;;;;6.60;4.28;;;;;;;-148.88;100.00;77475.69;4985047;28;20030;-87
2022/10/12 03:05:27;;;;;;;;;;;;;;;-148.88;100.00;77473.66;4983858;28;20488;-86
2022/10/12 03:07:53;;;;;;;7.43;4.53;;;;;;;-148.88;100.00;77475.69;4985881;28;20368;-86
2022/10/12 03:10:21;;;;;;;6.10;4.07;;;;;;;-148.88;100.00;77473.66;4983383;28;20031;-86
2022/10/12 03:12:59;;;;;;;10.27;4.68;;;;;;;-148.88;100.00;77487.88;4984610;28;20023;-86
2022/10/12 03:15:25;;;;;;;7.03;4.13;;;;;;;-148.88;100.00;77508.19;4982971;28;20492;-86
2022/10/12 03:17:58;;;;;;;9.25;4.63;;;;;;;-148.88;100.00;77502.09;4982704;28;20030;-85
2022/10/12 03:20:23;;;;;;;12.25;5.50;;;;;;;-148.88;100.00;77518.34;4977519;28;20018;-84
2022/10/12 03:22:49;;;;;;;8.43;4.70;;;;;;;-148.88;100.00;77516.31;4979795;28;20370;-85
2022/10/12 03:25:15;;;;;;;8.57;4.53;;;;;;;-148.88;100.00;77516.31;4979542;28;20034;-86
2022/10/12 03:27:40;;;;;;;10.90;4.88;;;;;;;-148.88;100.00;77512.25;4977658;28;20093;-86
2022/10/12 03:30:06;;;;;;;11.60;4.45;;;;;;;-148.88;100.00;77508.19;4979681;28;20110;-85
2022/10/12 03:32:32;;;;;;;7.82;4.13;;;;;;;-148.88;100.00;77504.13;4979884;28;20031;-85
2022/10/12 03:34:58;;;;;;;9.10;4.50;;;;;;;-148.88;100.00;77506.16;4978879;28;20500;-86
2022/10/12 03:37:23;;;;;;;10.95;5.00;;;;;;;-148.88;100.00;77504.13;4980368;28;20113;-85
2022/10/12 03:39:48;;;;;;;10.52;4.80;;;;;;;-148.88;100.00;77496.00;4979246;28;20060;-86
2022/10/12 03:42:14;;;;;;;10.10;4.55;;;;;;;-148.88;100.00;77508.19;4981716;28;20101;-86
2022/10/12 03:44:40;;;;;;;10.02;5.05;;;;;;;-148.88;100.00;77496.00;4982031;28;20455;-86
2022/10/12 03:47:05;;;;;;;13.57;5.60;;;;;;;-148.88;100.00;77500.06;4980798;28;20031;-87
2022/10/12 03:49:30;;;;;;;9.27;4.32;;;;;;;-148.88;100.00;77496.00;4978591;28;20027;-86
2022/10/12 03:51:59;;;;;;;9.85;4.82;;;;;;;-148.88;100.00;77493.97;4979986;28;20031;-86
2022/10/12 03:54:34;;;;;;;11.52;5.03;;;;;;;-148.88;100.00;77491.94;4991211;28;20037;-87
2022/10/12 03:57:01;;;;;;;8.82;4.88;;;;;;;-148.88;100.00;77502.09;4980487;28;20026;-86
2022/10/12 03:59:26;;;;;;;12.35;4.97;;;;;;;-148.88;100.00;77493.97;4978742;28;20054;-86
2022/10/12 04:01:55;;;;;;;10.05;4.95;;;;;;;-148.88;100.00;77498.03;4976463;28;20374;-85
2022/10/12 04:04:23;;;;;;;9.25;4.50;;;;;;;-148.88;100.00;77502.09;4976523;28;20087;-87
2022/10/12 04:06:51;;;;;;;11.55;5.38;;;;;;;-148.88;100.00;77500.06;4977128;28;20085;-87
2022/10/12 04:09:19;;;;;;;9.68;4.75;;;;;;;-148.88;100.00;77496.00;4975961;28;20030;-87
2022/10/12 04:11:45;;;;;;;10.45;4.97;;;;;;;-148.88;100.00;77500.06;4976698;28;20042;-87
2022/10/12 04:14:13;;;;;;;7.57;4.55;;;;;;;-148.88;100.00;77512.25;4977679;28;20027;-85
2022/10/12 04:16:39;;;;;;;10.70;5.10;;;;;;;-148.88;100.00;77512.25;4979247;28;20025;-86
2022/10/12 04:19:05;;;;;;;8.68;4.05;;;;;;;-148.88;100.00;77512.25;4980174;28;20109;-85
2022/10/12 04:21:32;;;;;;;8.48;3.97;;;;;;;-148.88;100.00;77510.22;4981114;28;20038;-84
2022/10/12 04:23:57;;;;;;;9.07;4.20;;;;;;;-148.88;100.00;77510.22;4980574;28;20441;-86
2022/10/12 04:26:25;;;;;;;8.82;4.55;;;;;;;-148.88;100.00;77508.19;4979924;28;20517;-86
2022/10/12 04:28:56;;;;;;;10.73;4.65;;;;;;;-148.88;100.00;77510.22;4980230;28;20042;-85
2022/10/12 04:31:25;;;;;;;10.43;4.95;;;;;;;-148.88;100.00;77518.34;4978113;28;20029;-85
2022/10/12 04:33:56;;;;;;;8.65;4.43;;;;;;;-148.88;100.00;77516.31;4977947;28;20098;-85
2022/10/12 04:36:33;;;;;;;9.55;4.68;;;;;;;-148.88;100.00;77512.25;4978260;28;20465;-85
2022/10/12 04:39:04;;;;;;;9.20;4.60;;;;;;;-148.88;100.00;77516.31;4977129;28;20023;-84
2022/10/12 04:41:30;;;;;;;10.57;4.97;;;;;;;-148.88;100.00;77520.38;4974873;28;20066;-85
2022/10/12 04:43:58;;;;;;;8.55;4.57;;;;;;;-148.88;100.00;77520.38;4975609;28;20473;-86
2022/10/12 04:46:24;;;;;;;9.05;4.93;;;;;;;-148.88;100.00;77528.50;4974684;28;20033;-86
2022/10/12 04:48:49;;;;;;;13.65;4.38;;;;;;;-148.88;100.00;77536.66;4974803;28;20026;-87
2022/10/12 04:51:21;;;;;;;11.85;4.95;;;;;;;-148.88;100.00;77540.72;4974037;28;20408;-86
2022/10/12 04:53:47;;;;;;;6.10;3.97;;;;;;;-148.88;100.00;77540.72;4974839;28;20109;-86
2022/10/12 04:56:12;;;;;;;9.85;5.40;;;;;;;-148.88;100.00;77540.72;4974040;28;20025;-86
2022/10/12 04:58:37;;;;;;;8.85;4.93;;;;;;;-148.88;100.00;77550.88;4973782;28;20023;-86
2022/10/12 05:01:03;;;;;;;13.27;5.30;;;;;;;-148.88;100.00;77544.78;4973959;28;20401;-86
2022/10/12 05:03:31;;;;;;;11.80;4.38;;;;;;;-148.88;100.00;77540.72;4976435;28;20030;-87
2022/10/12 05:05:59;;;;;;;9.75;4.88;;;;;;;-148.88;100.00;77542.75;4975607;28;20178;-86
2022/10/12 05:08:28;;;;;;;14.77;5.70;;;;;;;-148.88;100.00;77561.03;4974409;28;20030;-87
2022/10/12 05:10:56;;;;;;;12.77;5.13;;;;;;;-148.88;100.00;77569.16;4975322;28;20026;-87
2022/10/12 05:13:38;;;;;;;13.93;5.60;;;;;;;-148.88;100.00;77575.25;4974178;28;20065;-89
2022/10/12 05:16:51;;;;;;;9.38;4.90;;;;;;;-148.88;100.00;77571.19;4975621;28;20030;-89
2022/10/12 05:18:56;;;;;;;11.93;4.55;;;;;;;-148.88;100.00;77571.19;4977430;28;20580;-87
2022/10/12 05:21:41;;;;;;;10.98;4.80;;;;;;;-148.88;100.00;77569.16;4973514;28;20027;-89
2022/10/12 05:24:07;;;;;;;7.03;4.50;;;;;;;-148.88;100.00;77556.97;4974529;28;20034;-88
2022/10/12 05:26:42;;;;;;;7.40;4.60;;;;;;;-148.88;100.00;77561.03;4974317;28;20392;-89
2022/10/12 05:29:16;;;;;;;12.63;5.63;;;;;;;-148.88;100.00;77559.00;4973979;28;20030;-87
2022/10/12 05:31:50;;;;;;;7.00;4.10;;;;;;;-148.88;100.00;77561.03;4973173;28;20505;-88
2022/10/12 05:34:25;;;;;;;10.80;5.25;;;;;;;-148.88;100.00;77563.06;4974661;28;20038;-88
2022/10/12 05:36:58;;;;;;;11.90;5.00;;;;;;;-148.88;100.00;77554.94;4974893;28;20023;-89
2022/10/12 05:39:30;;;;;;;8.70;4.60;;;;;;;-148.88;100.00;77552.91;4974627;28;20051;-88
2022/10/12 05:42:12;;;;;;;13.20;5.65;;;;;;;-148.88;100.00;77552.91;4974550;28;20041;-88
2022/10/12 05:44:50;;;;;;;11.23;5.28;;;;;;;-148.88;100.00;77544.78;4973137;28;20039;-87
2022/10/12 05:47:15;;;;;;;10.80;4.93;;;;;;;-148.88;100.00;77548.84;4974778;28;20034;-91
2022/10/12 05:49:59;;;;;;;12.65;5.65;;;;;;;-148.88;100.00;77550.88;4973305;28;20123;-88
2022/10/12 05:52:24;;;;;;;9.55;5.35;;;;;;;-148.88;100.00;77552.91;4973329;28;20035;-90
2022/10/12 05:54:49;;;;;;;14.82;5.10;;;;;;;-148.88;100.00;77554.94;4974973;28;20049;-90
2022/10/12 05:57:15;;;;;;;15.90;6.10;;;;;;;-148.88;100.00;77559.00;4975052;28;20066;-89
2022/10/12 05:59:41;;;;;;;12.25;6.03;;;;;;;-148.88;100.00;77559.00;4978953;28;20030;-89
2022/10/12 06:02:06;;;;;;;11.23;5.00;;;;;;;-148.88;100.00;77556.97;4978615;28;20037;-87
2022/10/12 06:04:32;;;;;;;9.32;4.65;;;;;;;-148.88;100.00;77546.81;4977919;28;20081;-87
2022/10/12 06:06:57;;;;;;;8.77;4.38;;;;;;;-148.88;100.00;77548.84;4978412;28;20027;-87
2022/10/12 06:09:22;;;;;;;5.93;4.30;;;;;;;-148.88;100.00;77542.75;4978869;28;20397;-86
2022/10/12 06:11:48;;;;;;;11.50;4.43;;;;;;;-148.88;100.00;77538.69;4979188;28;20062;-86
2022/10/12 06:14:14;;;;;;;9.38;4.65;;;;;;;-148.88;100.00;77532.59;4980721;28;20125;-86
2022/10/12 06:16:39;;;;;;;7.35;3.97;;;;;;;-148.88;100.00;77524.44;4978488;28;20027;-87
2022/10/12 06:19:04;;;;;;;9.23;4.43;;;;;;;-148.88;100.00;77524.44;4980274;28;20077;-86
2022/10/12 06:21:30;;;;;;;9.52;4.47;;;;;;;-148.88;100.00;77522.41;4980826;28;20054;-87
2022/10/12 06:23:55;;;;;;;10.43;4.68;;;;;;;-148.88;100.00;77524.44;4980153;28;20575;-87
2022/10/12 06:26:20;;;;;;;11.13;5.40;;;;;;;-148.88;100.00;77520.38;4980751;28;20138;-88
2022/10/12 06:28:46;;;;;;;9.32;4.40;;;;;;;-148.88;100.00;77514.28;4978849;28;20022;-89
2022/10/12 06:31:11;;;;;;;9.98;4.80;;;;;;;-148.88;100.00;77514.28;4976920;28;20113;-89
2022/10/12 06:33:36;;;;;;;18.60;5.90;;;;;;;-148.88;100.00;77508.19;4978944;28;20027;-88
2022/10/12 06:36:02;;;;;;;9.13;5.22;;;;;;;-148.88;100.00;77500.06;4978284;28;20093;-89
2022/10/12 06:38:27;;;;;;;8.55;4.72;;;;;;;-148.88;100.00;77491.94;4978135;28;20111;-86
2022/10/12 06:40:53;;;;;;;14.63;5.38;;;;;;;-148.88;100.00;77483.81;4979984;28;20417;-85
2022/10/12 06:43:21;;;;;;;14.25;5.68;;;;;;;-148.88;100.00;77475.69;4984608;28;20073;-86
2022/10/12 06:45:47;;;;;;;11.80;5.18;;;;;;;-148.88;100.00;77469.59;4984447;28;20027;-86
2022/10/12 06:48:12;;;;;;;12.32;5.53;;;;;;;-148.88;100.00;77459.44;4983746;28;20110;-85
2022/10/12 06:50:37;;;;;;;13.45;5.20;;;;;;;-148.88;100.00;77465.53;4987972;28;20027;-86
2022/10/12 06:53:03;;;;;;;9.98;5.05;;;;;;;-148.88;100.00;77457.41;4989204;28;20058;-84
2022/10/12 06:55:28;;;;;;;14.82;6.68;;;;;;;-148.88;100.00;77463.50;4986776;28;20038;-85
2022/10/12 06:57:54;;;;;;;13.50;6.05;;;;;;;-148.88;100.00;77449.25;4984580;28;20055;-85
2022/10/12 07:00:20;;;;;;;13.50;5.43;;;;;;;-148.88;100.00;77447.22;4982884;28;20023;-86
2022/10/12 07:02:49;;;;;;;9.52;4.57;;;;;;;-148.88;100.00;77443.16;4983979;28;20500;-87
2022/10/12 07:05:15;;;;;;;7.70;4.68;;;;;;;-148.88;100.00;77447.22;4979955;28;20026;-86
2022/10/12 07:07:40;;;;;;;13.20;5.40;;;;;;;-148.88;100.00;77451.28;4981741;28;20060;-86
2022/10/12 07:10:06;;;;;;;12.57;5.13;;;;;;;-148.88;100.00;77441.13;4982831;28;20031;-85
2022/10/12 07:12:31;;;;;;;10.73;4.90;;;;;;;-148.88;100.00;77443.16;4982969;28;20031;-86
2022/10/12 07:14:58;;;;;;;10.85;4.78;;;;;;;-148.88;100.00;77433.00;4980244;28;20027;-85
2022/10/12 07:17:23;;;;;;;10.70;4.82;;;;;;;-148.88;100.00;77435.03;4982603;28;20514;-85
2022/10/12 07:19:48;;;;;;;10.00;5.40;;;;;;;-148.88;100.00;77426.91;4983696;28;20046;-85
2022/10/12 07:22:14;;;;;;;11.07;5.50;;;;;;;-148.88;100.00;77439.09;4983191;28;20436;-86
2022/10/12 07:24:39;;;;;;;11.00;4.65;;;;;;;-148.88;100.00;77435.03;4979996;28;20437;-86
2022/10/12 07:27:09;;;;;;;12.52;5.53;;;;;;;-148.88;100.00;77441.13;4978483;28;20058;-86
2022/10/12 07:29:36;;;;;;;11.77;6.15;;;;;;;-148.88;100.00;77439.09;4980187;28;20092;-84
2022/10/12 07:32:01;;;;;;;15.75;5.45;;;;;;;-148.88;100.00;77439.09;4990037;28;20014;-86
2022/10/12 07:34:28;;;;;;;11.25;5.80;;;;;;;-148.88;100.00;77453.31;5000414;28;20019;-84
2022/10/12 07:36:54;;;;;;;9.40;4.90;;;;;;;-148.88;100.00;77447.22;4993232;28;20492;-87
2022/10/12 07:39:21;;;;;;;13.15;6.00;;;;;;;-148.88;100.00;77443.16;4983284;28;20034;-85
2022/10/12 07:41:46;;;;;;;8.80;6.00;;;;;;;-148.88;100.00;77430.97;4980798;28;20080;-86
2022/10/12 07:44:12;;;;;;;12.77;5.43;;;;;;;-148.88;100.00;77426.91;4979175;28;20121;-86
2022/10/12 07:46:37;;;;;;;13.35;6.78;;;;;;;-148.88;100.00;77414.72;4978975;28;20110;-85
2022/10/12 07:49:10;;;;;;;17.38;7.25;;;;;;;-148.88;100.00;77410.66;4978291;28;20485;-86
2022/10/12 07:51:36;;;;;;;9.23;5.88;;;;;;;-148.88;100.00;77410.66;4978759;28;20035;-86
2022/10/12 07:54:01;;;;;;;14.38;6.38;;;;;;;-148.88;100.00;77408.63;4979844;28;20054;-85
2022/10/12 07:56:26;;;;;;;11.50;5.97;;;;;;;-148.88;100.00;77400.50;4981723;28;20045;-86
2022/10/12 07:58:54;;;;;;;13.60;6.60;;;;;;;-148.88;100.00;77384.25;4980890;28;20049;-86
2022/10/12 08:01:25;;;;;;;13.13;6.75;;;;;;;-148.88;100.00;77374.09;4980770;28;20493;-87
2022/10/12 08:03:53;;;;;;;14.18;6.95;;;;;;;-148.88;100.00;77365.94;4980836;28;20027;-86
2022/10/12 08:06:21;;;;;;;16.88;6.57;;;;;;;-148.88;100.00;77353.75;4978738;28;20129;-87
2022/10/12 08:08:48;;;;;;;13.10;6.65;;;;;;;-148.88;100.00;77337.50;4978917;28;20027;-87
2022/10/12 08:11:14;;;;;;;14.43;6.18;;;;;;;-148.88;100.00;77323.28;4979056;28;20027;-84
2022/10/12 08:13:43;;;;;;;13.20;6.35;;;;;;;-148.88;100.00;77298.91;4977734;28;20030;-85
2022/10/12 08:16:16;;;;;;;13.82;5.78;;;;;;;-148.88;100.00;77280.59;4979371;28;20046;-84
2022/10/12 08:18:49;;;;;;;13.68;6.18;;;;;;;-148.88;100.00;77272.47;4979178;28;20058;-85
2022/10/12 08:21:41;;;;;;;15.48;6.35;;;;;;;-148.88;100.00;77258.25;4980817;28;20030;-85
2022/10/12 08:24:13;;;;;;;10.07;6.50;;;;;;;-148.88;100.00;77246.06;4980937;28;20393;-84
2022/10/12 08:26:39;;;;;;;14.98;7.15;;;;;;;-148.88;100.00;77221.69;4981459;28;20031;-85
2022/10/12 08:29:06;;;;;;;11.68;6.70;;;;;;;-148.88;100.00;77209.50;4979814;28;20112;-86
2022/10/12 08:31:35;;;;;;;14.48;10.10;;;;;;;-148.88;100.00;77183.06;4979319;28;20505;-85
2022/10/12 08:34:19;;;;;;;15.30;7.57;;;;;;;-148.88;100.00;77168.84;4980121;28;20033;-85
2022/10/12 08:37:03;;;;;;;13.52;6.75;;;;;;;-148.88;100.00;77150.56;4979548;28;20023;-85
2022/10/12 08:39:45;;;;;;;11.52;5.90;;;;;;;-148.88;100.00;77122.13;4980424;28;20031;-86
2022/10/12 08:42:46;;;;;;;10.68;5.72;;;;;;;-148.88;100.00;77109.94;4981062;28;20050;-86
2022/10/12 08:45:42;;;;;;;11.25;5.82;;;;;;;-148.88;100.00;77073.34;4979501;28;20038;-84
2022/10/12 08:48:19;;;;;;;21.83;6.93;;;;;;;-148.88;100.00;77048.97;4980855;28;20100;-83
2022/10/12 08:51:15;;;;;;;16.88;6.22;;;;;;;-148.88;100.00;77022.56;4980071;28;20080;-86
2022/10/12 08:54:05;;;;;;;15.10;6.00;;;;;;;-148.88;100.00;77000.19;4980001;28;20388;-86
2022/10/12 08:56:40;;;;;;;12.95;4.55;;;;;;;-148.88;100.00;76975.81;4981458;28;20103;-85
2022/10/12 08:59:16;;;;;;;15.65;7.45;;;;;;;-148.88;100.00;76935.19;4979312;28;20536;-84
2022/10/12 09:02:06;;;;;;;16.67;7.07;;;;;;;-148.88;100.00;76886.41;4980501;28;20074;-85
2022/10/12 09:04:53;;;;;;;11.18;5.68;;;;;;;-148.88;100.00;76862.03;4980118;28;20022;-85
2022/10/12 09:07:58;;;;;;;11.98;3.97;;;;;;;-148.88;93.17;76664.97;4978810;28;20042;-89
2022/10/12 09:10:46;;;;;;;12.15;4.93;;;;;;;-148.88;84.26;76536.97;4976006;28;20027;-84
2022/10/12 09:14:09;;;;;;;8.65;3.75;;;;;;;-148.88;81.58;76557.28;4974584;28;20030;-82
2022/10/12 09:16:47;;;;;;;12.25;4.68;;;;;;;-148.88;83.13;76569.47;4964231;28;20045;-84
2022/10/12 09:19:33;;;;;;;8.77;4.55;;;;;;;-148.88;84.87;76606.06;4975885;28;20051;-83
2022/10/12 09:22:01;;;;;;;9.10;4.30;;;;;;;-148.88;85.30;76589.78;4976575;28;20034;-82
2022/10/12 09:24:31;;;;;;;11.80;4.30;;;;;;;-148.88;83.55;76583.69;4975336;28;20031;-84
2022/10/12 09:27:13;;;;;;;10.57;4.05;;;;;;;-148.88;82.50;76575.56;4976252;28;20034;-83
2022/10/12 09:29:50;;;;;;;10.68;4.07;;;;;;;-148.88;83.67;76573.53;4974714;28;20507;-84
2022/10/12 09:32:19;;;;;;;8.90;4.25;;;;;;;-148.88;83.88;76524.78;4978589;28;20038;-84
2022/10/12 09:34:53;;;;;;;14.82;4.50;;;;;;;-148.88;82.94;76524.78;4983432;28;20031;-84
2022/10/12 09:37:25;;;;;;;13.02;4.57;;;;;;;-148.88;83.77;76471.97;4985006;28;20026;-85
2022/10/12 09:39:54;;;;;;;11.88;3.80;;;;;;;-148.88;80.52;76439.47;4986703;28;20029;-84
2022/10/12 09:42:19;;;;;;;12.88;4.53;;;;;;;-148.88;80.36;76406.94;4984779;28;20027;-84
2022/10/12 09:45:03;;;;;;;16.25;4.60;;;;;;;-148.88;78.52;76392.72;4985178;28;20043;-84
2022/10/12 09:47:32;;;;;;;;;;;;;;;-148.88;76.22;76394.75;4983655;28;20037;-85
2022/10/12 09:50:08;;;;;;;9.80;4.03;;;;;;;-148.88;77.56;76358.19;4983806;28;19945;-85
2022/10/12 09:52:45;;;;;;;9.98;3.70;;;;;;;-148.88;75.90;76411.00;4984801;28;20473;-85
2022/10/12 09:55:33;;;;;;;11.30;4.05;;;;;;;-148.88;77.80;76362.25;4985287;28;20114;-84
2022/10/12 09:58:05;;;;;;;12.02;3.60;;;;;;;-148.88;74.22;76346.00;4981648;28;20027;-84
2022/10/12 10:00:34;;;;;;;12.68;3.65;;;;;;;-148.88;74.52;76317.56;4980969;28;20459;-84
2022/10/12 10:03:21;;;;;;;7.95;3.75;;;;;;;-148.88;73.87;76317.56;4981388;28;20098;-84
2022/10/12 10:06:05;;;;;;;8.98;4.00;;;;;;;-148.88;74.54;76321.63;4980980;28;20038;-84
2022/10/12 10:08:41;;;;;;;;;;;;;;;-148.88;72.37;76323.66;4982369;28;20061;-85
2022/10/12 10:11:27;;;;;;;10.60;3.88;;;;;;;-148.88;74.15;76321.63;4982566;28;19953;-85
2022/10/12 10:14:05;;;;;;;12.43;3.35;;;;;;;-148.88;72.70;76319.59;4980879;28;20058;-85
2022/10/12 10:16:31;;;;;;;10.57;3.38;;;;;;;-148.88;72.33;76325.69;4981071;28;20109;-84
2022/10/12 10:19:00;;;;;;;8.25;3.10;;;;;;;-148.88;73.12;76293.19;4981875;28;20066;-84
2022/10/12 10:21:37;;;;;;;9.30;3.53;;;;;;;-148.88;74.68;76272.88;4980922;28;20481;-84
2022/10/12 10:24:08;;;;;;;11.27;3.10;;;;;;;-148.88;73.57;76256.63;4980276;28;20027;-84
2022/10/12 10:26:55;;;;;;;9.10;3.10;;;;;;;-148.88;70.75;76222.09;4980837;28;20034;-84
2022/10/12 10:29:24;;;;;;;9.07;3.30;;;;;;;-148.88;69.16;76179.44;5000493;28;20037;-83
2022/10/12 10:32:30;;;;;;;8.15;3.00;;;;;;;-148.88;68.55;76155.06;5003102;28;20030;-87
2022/10/12 10:35:24;;;;;;;7.70;2.53;;;;;;;-148.88;68.62;76106.28;4984454;28;20454;-86
2022/10/12 10:38:02;;;;;;;9.63;2.67;;;;;;;-148.88;65.57;76128.66;4983313;28;20038;-86
2022/10/12 10:40:31;;;;;;;9.25;3.03;;;;;;;-148.88;67.07;76051.44;4984154;28;20078;-86
2022/10/12 10:43:03;;;;;;;10.98;2.58;;;;;;;-148.88;66.94;76020.97;4983013;28;20094;-86
2022/10/12 10:46:10;;;;;;;8.07;2.88;;;;;;;-148.88;64.25;76029.09;4977834;28;20045;-83
2022/10/12 10:48:57;;;;;;;5.75;2.45;;;;;;;-148.88;63.15;76055.50;4963232;28;20180;-85
2022/10/12 10:51:48;;;;;;;11.50;3.25;;;;;;;-148.88;64.01;75968.16;4978755;28;20046;-86
2022/10/12 10:54:24;;;;;;;7.60;2.70;;;;;;;-148.88;65.43;75927.53;4980564;28;20032;-84
2022/10/12 10:57:15;;;;;;;9.90;2.60;;;;;;;-148.88;62.23;75970.19;4980139;28;20030;-86
2022/10/12 10:59:50;;;;;;;7.45;2.72;;;;;;;-148.88;61.57;76012.84;4976947;28;20042;-85
2022/10/12 11:03:00;;;;;;;9.48;2.83;;;;;;;-148.88;61.86;75955.97;4976693;28;20417;-85
2022/10/12 11:05:37;;;;;;;6.38;2.30;;;;;;;-148.88;61.99;75947.84;4976751;28;20027;-85
2022/10/12 11:08:29;;;;;;;11.88;3.08;;;;;;;-148.88;61.34;75945.81;4976616;28;20063;-84
2022/10/12 11:11:28;;;;;;;6.60;2.45;;;;;;;-148.88;62.35;75951.91;4977138;28;20089;-85
2022/10/12 11:14:11;;;;;;;7.57;2.70;;;;;;;-148.88;61.50;75947.84;4978109;28;20470;-85
2022/10/12 11:16:47;;;;;;;9.98;2.55;;;;;;;-148.88;60.67;75949.88;4977017;28;20432;-85
2022/10/12 11:19:35;;;;;;;9.48;3.03;;;;;;;-148.88;60.63;75955.97;4977761;28;20030;-85
2022/10/12 11:22:39;;;;;;;9.98;2.72;;;;;;;-148.88;59.82;75974.25;4977686;28;20049;-84
2022/10/12 11:25:13;;;;;;;;;;;;;;;-148.88;59.83;75972.22;4978689;28;20106;-85
2022/10/12 11:27:40;;;;;;;7.20;2.20;;;;;;;-148.88;62.29;75958.00;4976275;28;19960;-85
2022/10/12 11:30:14;;;;;;;7.30;2.20;;;;;;;-148.88;61.21;75951.91;4977834;28;20030;-85
2022/10/12 11:32:53;;;;;;;7.25;2.40;;;;;;;-148.88;62.25;75955.97;4976733;28;20505;-84
2022/10/12 11:35:35;;;;;;;12.48;2.60;;;;;;;-148.88;60.80;75945.81;4976745;28;20081;-84
2022/10/12 11:38:26;;;;;;;6.85;2.80;;;;;;;-148.88;61.31;75943.78;4976064;28;20046;-84
2022/10/12 11:41:04;;;;;;;8.63;2.70;;;;;;;-148.88;60.19;75955.97;4972275;28;20118;-84